If you wish to contribute or participate in the discussions about articles you are invited to join SKYbrary as a registered user

 Actions

Afonso Pena International Airport

From SKYbrary Wiki

SBCT
Airport
ICAO: SBCT – IATA: CWB
Summary
Name Afonso Pena International Airport
Region South America and Caribbean
Territory Brazil BR.gif
Location São José dos Pinhais, Parana
Serving Curitiba
Elevation 910.742 m
2,988 ft910.742 m
Coordinates 25° 31' 52.00" S, 49° 10' 32.02" W
Runways
Designator Length Width Surface ROPS
11/29 1800 m5,905.512 ft
45 m147.638 ft
ASP no/no
15/33 2215 m7,267.06 ft
45 m147.638 ft
ASP no/no


METAR
Observation SBCT 211400Z 05004KT 9999 FEW009 OVC014 13/10 Q1027
Station Curitiba Aeroporto
Date/Time 21 August 2019 14:00:00
Wind direction 50°
Wind speed 04 kts
Lowest cloud amount few clouds
Temperature 13°C
Dew point 10°C
Humidity 82%
QNH 1027 hPa
Weather condition n/a

Afonso Pena International Airport is the main airport serving Curitiba, Brazil, located in the adjoining municipality of São José dos Pinhais.

Climatology

Subtropical highland/oceanic climate (Köppen climate classification Cfb)

Maps

Terrain

Loading map...

Airport Layout

Loading map...


Accidents & Serious Incidents at or in vicinity of SBCT

None on SKYbrary